createdAt,value
2023-01-31T00:01:29.056Z,4.60
2023-01-31T00:03:57.947Z,8.03
2023-01-31T00:06:27.989Z,5.70
2023-01-31T00:08:56.520Z,10.70
2023-01-31T00:11:27.722Z,5.65
2023-01-31T00:13:55.841Z,10.95
2023-01-31T00:16:24.259Z,8.73
2023-01-31T00:18:51.770Z,9.50
2023-01-31T00:21:21.170Z,8.65
2023-01-31T00:23:49.968Z,14.98
2023-01-31T00:26:19.182Z,6.38
2023-01-31T00:28:50.269Z,15.30
2023-01-31T00:31:19.104Z,11.32
2023-01-31T00:33:48.460Z,7.68
2023-01-31T00:36:17.694Z,11.35
2023-01-31T00:38:45.907Z,8.57
2023-01-31T00:41:13.363Z,12.73
2023-01-31T00:43:40.877Z,12.65
2023-01-31T00:46:09.795Z,11.48
2023-01-31T00:48:37.885Z,6.72
2023-01-31T00:51:06.502Z,12.40
2023-01-31T00:53:34.615Z,13.30
2023-01-31T00:56:07.300Z,10.30
2023-01-31T00:58:35.846Z,6.63
2023-01-31T01:01:09.074Z,13.48
2023-01-31T01:03:37.418Z,18.05
2023-01-31T01:06:05.589Z,16.03
2023-01-31T01:08:33.839Z,18.10
2023-01-31T01:11:06.648Z,16.70
2023-01-31T01:13:34.833Z,11.50
2023-01-31T01:16:06.164Z,13.15
2023-01-31T01:18:35.550Z,11.77
2023-01-31T01:21:08.495Z,10.65
2023-01-31T01:23:36.337Z,12.73
2023-01-31T01:26:04.002Z,12.23
2023-01-31T01:28:35.074Z,11.20
2023-01-31T01:31:06.246Z,12.93
2023-01-31T01:33:35.442Z,8.73
2023-01-31T01:36:03.176Z,11.25
2023-01-31T01:38:31.254Z,9.27
2023-01-31T01:40:58.846Z,11.35
2023-01-31T01:43:40.632Z,8.73
2023-01-31T01:46:10.246Z,10.27
2023-01-31T01:48:39.850Z,17.95
2023-01-31T01:51:08.120Z,8.65
2023-01-31T01:53:39.249Z,11.02
2023-01-31T01:56:10.495Z,11.17
2023-01-31T01:58:43.704Z,11.48
2023-01-31T02:01:16.737Z,4.93
2023-01-31T02:03:46.953Z,13.45
2023-01-31T02:06:14.532Z,10.55
2023-01-31T02:08:43.498Z,19.30
2023-01-31T02:11:16.592Z,11.98
2023-01-31T02:13:46.643Z,11.13
2023-01-31T02:16:14.384Z,17.83
2023-01-31T02:18:42.605Z,10.85
2023-01-31T02:21:43.798Z,18.33
2023-01-31T02:24:37.104Z,13.18
2023-01-31T02:27:24.363Z,12.88
2023-01-31T02:30:13.297Z,14.40
2023-01-31T02:32:53.427Z,12.10
2023-01-31T02:35:33.896Z,14.43
2023-01-31T02:38:14.559Z,12.57
2023-01-31T02:40:50.208Z,9.57
2023-01-31T02:43:24.765Z,16.55
2023-01-31T02:45:59.802Z,12.20
2023-01-31T02:48:41.663Z,11.10
2023-01-31T02:51:15.193Z,16.30
2023-01-31T02:53:46.589Z,14.68
2023-01-31T02:56:20.370Z,16.33
2023-01-31T02:58:55.521Z,9.27
2023-01-31T03:01:27.795Z,18.67
2023-01-31T03:03:58.972Z,19.73
2023-01-31T03:06:59.699Z,21.63
2023-01-31T03:09:40.586Z,20.35
2023-01-31T03:12:20.768Z,17.63
2023-01-31T03:14:58.712Z,14.80
2023-01-31T03:17:34.736Z,13.05
2023-01-31T03:20:09.940Z,10.20
2023-01-31T03:22:41.445Z,12.88
2023-01-31T03:25:12.851Z,10.07
2023-01-31T03:27:46.162Z,11.97
2023-01-31T03:30:18.570Z,16.00
2023-01-31T03:32:52.011Z,13.60
2023-01-31T03:35:23.456Z,14.80
2023-01-31T03:37:58.318Z,15.65
2023-01-31T03:40:31.409Z,14.33
2023-01-31T03:43:06.248Z,21.67
2023-01-31T03:45:37.561Z,14.73
2023-01-31T03:48:14.366Z,11.48
2023-01-31T03:50:48.671Z,16.42
2023-01-31T03:53:19.709Z,16.53
2023-01-31T03:55:52.996Z,22.75
2023-01-31T03:58:27.129Z,14.15
2023-01-31T04:00:57.880Z,20.70
2023-01-31T04:03:32.265Z,20.70
2023-01-31T04:06:01.288Z,26.50
2023-01-31T04:08:29.044Z,14.13
2023-01-31T04:10:58.344Z,13.98
2023-01-31T04:13:25.889Z,10.75
2023-01-31T04:15:53.393Z,13.57
2023-01-31T04:18:20.925Z,20.40
2023-01-31T04:20:48.416Z,13.90
2023-01-31T04:23:18.720Z,13.55
2023-01-31T04:25:46.206Z,17.77
2023-01-31T04:28:13.950Z,15.48
2023-01-31T04:30:41.461Z,12.00
2023-01-31T04:33:09.473Z,16.85
2023-01-31T04:35:37.086Z,17.42
2023-01-31T04:38:04.559Z,15.20
2023-01-31T04:40:33.911Z,13.75
2023-01-31T04:43:01.477Z,12.07
2023-01-31T04:45:28.984Z,14.90
2023-01-31T04:47:56.506Z,10.98
2023-01-31T04:50:23.994Z,11.15
2023-01-31T04:52:51.975Z,16.27
2023-01-31T04:55:20.071Z,20.27
2023-01-31T04:57:49.190Z,10.77
2023-01-31T05:00:17.388Z,7.03
2023-01-31T05:02:44.909Z,16.67
2023-01-31T05:05:13.593Z,8.98
2023-01-31T05:07:41.076Z,11.13
2023-01-31T05:10:10.031Z,12.77
2023-01-31T05:12:37.581Z,11.73
2023-01-31T05:15:08.182Z,12.35
2023-01-31T05:17:36.150Z,10.10
2023-01-31T05:20:04.100Z,11.53
2023-01-31T05:22:31.593Z,10.82
2023-01-31T05:24:59.109Z,13.15
2023-01-31T05:27:27.222Z,9.70
2023-01-31T05:29:55.073Z,11.60
2023-01-31T05:32:24.231Z,9.93
2023-01-31T05:34:51.916Z,11.00
2023-01-31T05:37:19.525Z,11.73
2023-01-31T05:39:47.174Z,9.32
2023-01-31T05:42:14.730Z,11.93
2023-01-31T05:44:42.386Z,15.60
2023-01-31T05:47:10.006Z,15.98
2023-01-31T05:49:38.879Z,16.98
2023-01-31T05:52:06.582Z,16.25
2023-01-31T05:54:34.559Z,11.60
2023-01-31T05:57:02.855Z,18.90
2023-01-31T05:59:33.506Z,11.15
2023-01-31T06:02:01.220Z,16.45
2023-01-31T06:04:28.898Z,27.73
2023-01-31T06:06:58.008Z,16.70
2023-01-31T06:09:25.588Z,15.53
2023-01-31T06:11:53.069Z,12.52
2023-01-31T06:14:20.674Z,11.95
2023-01-31T06:16:48.468Z,9.80
2023-01-31T06:19:15.988Z,11.30
2023-01-31T06:21:43.525Z,9.13
2023-01-31T06:24:12.313Z,21.48
2023-01-31T06:26:39.794Z,12.25
2023-01-31T06:29:07.442Z,6.70
2023-01-31T06:31:35.096Z,10.55
2023-01-31T06:34:03.547Z,12.77
2023-01-31T06:36:33.927Z,11.07
2023-01-31T06:39:01.445Z,9.82
2023-01-31T06:41:30.570Z,8.43
2023-01-31T06:43:58.174Z,8.95
2023-01-31T06:46:25.640Z,9.17
2023-01-31T06:48:53.131Z,12.07
2023-01-31T06:51:20.600Z,8.85
2023-01-31T06:53:48.098Z,7.40
2023-01-31T06:56:15.598Z,9.75
2023-01-31T06:58:44.405Z,15.43
2023-01-31T07:01:14.102Z,12.55
2023-01-31T07:03:42.525Z,13.18
2023-01-31T07:06:11.819Z,10.75
2023-01-31T07:08:39.384Z,11.88
2023-01-31T07:11:07.222Z,10.27
2023-01-31T07:13:34.834Z,12.45
2023-01-31T07:16:04.156Z,16.35
2023-01-31T07:18:31.658Z,11.63
2023-01-31T07:20:59.120Z,9.35
2023-01-31T07:23:26.621Z,7.73
2023-01-31T07:25:54.098Z,9.73
2023-01-31T07:28:21.671Z,11.27
2023-01-31T07:30:49.225Z,17.30
2023-01-31T07:33:18.064Z,16.65
2023-01-31T07:35:45.612Z,17.30
2023-01-31T07:38:13.099Z,10.07
2023-01-31T07:40:40.962Z,10.65
2023-01-31T07:43:08.452Z,9.73
2023-01-31T07:45:36.214Z,5.18
2023-01-31T07:48:03.766Z,11.20
2023-01-31T07:50:32.534Z,13.00
2023-01-31T07:53:00.083Z,11.52
2023-01-31T07:55:27.684Z,15.70
2023-01-31T07:57:55.114Z,11.10
2023-01-31T08:00:41.020Z,14.57
2023-01-31T08:03:34.078Z,7.80
2023-01-31T08:06:04.579Z,9.32
2023-01-31T08:08:32.097Z,6.80
2023-01-31T08:10:59.688Z,10.38
2023-01-31T08:13:27.723Z,15.37
2023-01-31T08:15:55.457Z,8.95
2023-01-31T08:18:22.980Z,9.70
2023-01-31T08:20:50.483Z,10.18
2023-01-31T08:23:19.311Z,11.30
2023-01-31T08:25:47.032Z,11.27
2023-01-31T08:28:15.083Z,5.80
2023-01-31T08:30:43.112Z,10.40
2023-01-31T08:33:12.676Z,10.35
2023-01-31T08:35:40.134Z,10.02
2023-01-31T08:38:16.317Z,9.00
2023-01-31T08:40:46.295Z,9.52
2023-01-31T08:43:14.367Z,12.88
2023-01-31T08:45:42.308Z,7.20
2023-01-31T08:48:09.823Z,10.48
2023-01-31T08:50:39.183Z,13.40
2023-01-31T08:53:08.073Z,15.38
2023-01-31T08:55:37.204Z,10.73
2023-01-31T08:58:06.008Z,5.28
2023-01-31T09:00:33.957Z,8.43
2023-01-31T09:03:04.311Z,12.53
2023-01-31T09:05:33.505Z,6.55
2023-01-31T09:08:02.885Z,12.60
2023-01-31T09:10:30.327Z,4.32
2023-01-31T09:13:00.118Z,8.57
2023-01-31T09:15:29.137Z,14.83
2023-01-31T09:17:56.590Z,15.50
2023-01-31T09:20:24.151Z,10.82
2023-01-31T09:22:51.670Z,14.15
2023-01-31T09:25:25.346Z,15.55
2023-01-31T09:27:57.952Z,9.83
2023-01-31T09:30:25.416Z,9.75
2023-01-31T09:32:54.209Z,9.35
2023-01-31T09:35:21.991Z,11.10
2023-01-31T09:37:49.648Z,12.30
2023-01-31T09:40:23.557Z,9.17
2023-01-31T09:42:53.648Z,11.18
2023-01-31T09:45:29.591Z,9.85
2023-01-31T09:48:01.056Z,12.98
2023-01-31T09:50:34.685Z,8.80
2023-01-31T09:53:02.502Z,8.00
2023-01-31T09:55:40.877Z,14.55
2023-01-31T09:58:18.188Z,11.43
2023-01-31T10:00:51.102Z,13.55
2023-01-31T10:03:34.358Z,14.95
2023-01-31T10:06:09.179Z,8.97
2023-01-31T10:08:46.466Z,9.05
2023-01-31T10:11:20.345Z,9.07
2023-01-31T10:13:54.411Z,10.93
2023-01-31T10:16:25.963Z,9.82
2023-01-31T10:19:00.469Z,8.17
2023-01-31T10:21:33.457Z,14.60
2023-01-31T10:24:05.518Z,14.27
2023-01-31T10:26:35.816Z,8.30
2023-01-31T10:29:11.497Z,8.25
2023-01-31T10:31:44.489Z,5.77
2023-01-31T10:34:18.990Z,9.20
2023-01-31T10:36:50.853Z,9.65
2023-01-31T10:39:24.588Z,6.82
2023-01-31T10:42:06.148Z,6.10
2023-01-31T10:44:42.848Z,10.20
2023-01-31T10:47:14.370Z,8.40
2023-01-31T10:49:46.459Z,6.80
2023-01-31T10:52:31.170Z,19.27
2023-01-31T10:55:11.252Z,7.05
2023-01-31T10:57:38.990Z,9.40
2023-01-31T11:00:07.891Z,10.75
2023-01-31T11:02:35.625Z,10.30
2023-01-31T11:05:04.620Z,8.35
2023-01-31T11:07:32.689Z,10.23
2023-01-31T11:10:00.193Z,11.10
2023-01-31T11:12:43.069Z,8.52
2023-01-31T11:15:17.633Z,12.93
2023-01-31T11:17:47.193Z,12.80
2023-01-31T11:20:28.120Z,8.65
2023-01-31T11:22:57.624Z,10.17
2023-01-31T11:25:27.743Z,10.73
2023-01-31T11:27:58.568Z,10.35
2023-01-31T11:30:29.678Z,12.88
2023-01-31T11:32:58.253Z,8.52
2023-01-31T11:35:30.040Z,14.27
2023-01-31T11:37:59.985Z,11.70
2023-01-31T11:40:31.548Z,14.20
2023-01-31T11:43:00.750Z,11.63
2023-01-31T11:45:31.371Z,8.63
2023-01-31T11:48:01.127Z,10.03
2023-01-31T11:50:35.145Z,7.35
2023-01-31T11:53:05.086Z,6.53
2023-01-31T11:55:37.948Z,12.93
2023-01-31T11:58:17.402Z,7.30
2023-01-31T12:00:54.375Z,8.23
2023-01-31T12:03:22.412Z,5.20
2023-01-31T12:06:00.186Z,17.42
2023-01-31T12:08:31.207Z,6.82
2023-01-31T12:10:59.863Z,9.27
2023-01-31T12:13:28.947Z,9.03
2023-01-31T12:15:59.862Z,8.63
2023-01-31T12:18:45.491Z,6.80
2023-01-31T12:21:37.205Z,15.57
2023-01-31T12:24:13.231Z,7.07
2023-01-31T12:26:46.231Z,4.00
2023-01-31T12:29:43.005Z,5.32
2023-01-31T12:32:22.298Z,3.42
2023-01-31T12:35:13.596Z,2.92
2023-01-31T12:37:51.024Z,3.00
2023-01-31T12:40:31.060Z,3.23
2023-01-31T12:43:00.674Z,3.45
2023-01-31T12:45:42.448Z,2.70
2023-01-31T12:48:42.709Z,5.63
2023-01-31T12:51:23.498Z,4.00
2023-01-31T12:54:04.871Z,2.07
2023-01-31T12:56:47.257Z,1.15
2023-01-31T12:59:27.967Z,1.83
2023-01-31T13:02:01.575Z,2.47
2023-01-31T13:04:39.936Z,1.23
2023-01-31T13:07:12.916Z,1.63
2023-01-31T13:09:42.207Z,2.47
2023-01-31T13:12:15.396Z,3.08
2023-01-31T13:14:45.906Z,3.60
2023-01-31T13:17:15.608Z,1.50
2023-01-31T13:19:52.467Z,4.33
2023-01-31T13:22:23.930Z,2.85
2023-01-31T13:24:59.900Z,2.85
2023-01-31T13:27:30.706Z,4.25
2023-01-31T13:30:02.677Z,3.53
2023-01-31T13:32:35.254Z,2.67
2023-01-31T13:35:10.772Z,3.50
2023-01-31T13:37:41.829Z,9.77
2023-01-31T13:40:19.743Z,3.53
2023-01-31T13:42:47.338Z,3.30
2023-01-31T13:45:23.795Z,3.90
2023-01-31T13:47:55.492Z,4.55
2023-01-31T13:50:35.180Z,4.05
2023-01-31T13:53:08.138Z,4.75
2023-01-31T13:55:39.446Z,4.25
2023-01-31T13:58:08.982Z,3.70
2023-01-31T14:00:41.408Z,4.40
2023-01-31T14:03:11.959Z,4.78
2023-01-31T14:05:54.966Z,4.20
2023-01-31T14:08:37.982Z,2.90
2023-01-31T14:11:34.929Z,5.70
2023-01-31T14:14:19.631Z,5.35
2023-01-31T14:16:48.980Z,7.10
2023-01-31T14:20:00.244Z,8.20
2023-01-31T14:22:34.812Z,4.45
2023-01-31T14:25:05.745Z,6.53
2023-01-31T14:27:51.952Z,6.20
2023-01-31T14:30:35.514Z,5.65
2023-01-31T14:33:19.853Z,8.95
2023-01-31T14:36:05.876Z,6.65
2023-01-31T14:38:58.938Z,9.23
2023-01-31T14:41:39.188Z,7.28
2023-01-31T14:44:20.537Z,6.35
2023-01-31T14:47:11.451Z,5.30
2023-01-31T14:49:56.336Z,6.32
2023-01-31T14:52:37.657Z,2.37
2023-01-31T14:55:23.664Z,3.00
2023-01-31T14:57:55.967Z,4.53
2023-01-31T15:00:27.649Z,4.28
2023-01-31T15:03:02.815Z,3.13
2023-01-31T15:05:43.117Z,4.40
2023-01-31T15:08:43.828Z,3.83
2023-01-31T15:11:41.376Z,3.05
2023-01-31T15:14:36.011Z,1.80
2023-01-31T15:17:27.283Z,2.20
2023-01-31T15:20:08.367Z,1.73
2023-01-31T15:22:41.406Z,3.40
2023-01-31T15:25:23.397Z,1.63
2023-01-31T15:27:51.726Z,2.08
2023-01-31T15:30:21.633Z,1.83
2023-01-31T15:32:56.461Z,1.23
2023-01-31T15:35:28.863Z,4.65
2023-01-31T15:38:01.520Z,1.23
2023-01-31T15:40:29.333Z,2.38
2023-01-31T15:43:18.264Z,2.13
2023-01-31T15:45:47.630Z,1.63
2023-01-31T15:48:18.302Z,1.48
2023-01-31T15:50:51.510Z,1.45
2023-01-31T15:53:21.175Z,1.70
2023-01-31T15:55:50.462Z,1.20
2023-01-31T15:58:20.785Z,1.50
2023-01-31T16:00:51.605Z,1.33
2023-01-31T16:03:23.930Z,1.63
2023-01-31T16:05:53.647Z,1.05
2023-01-31T16:08:29.075Z,1.38
2023-01-31T16:10:57.624Z,1.63
2023-01-31T16:13:27.141Z,1.20
2023-01-31T16:15:55.336Z,1.25
2023-01-31T16:18:25.209Z,1.27
2023-01-31T16:20:55.198Z,1.92
2023-01-31T16:23:29.183Z,2.27
2023-01-31T16:26:06.878Z,1.65
2023-01-31T16:28:39.531Z,1.38
2023-01-31T16:31:12.566Z,1.45
2023-01-31T16:33:48.294Z,1.27
2023-01-31T16:36:18.622Z,1.17
2023-01-31T16:38:57.320Z,2.05
2023-01-31T16:41:50.901Z,4.07
2023-01-31T16:44:20.925Z,2.17
2023-01-31T16:46:49.943Z,2.30
2023-01-31T16:49:24.657Z,1.77
2023-01-31T16:51:55.473Z,2.33
2023-01-31T16:54:24.616Z,2.08
2023-01-31T16:57:20.536Z,1.70
2023-01-31T16:59:52.725Z,1.98
2023-01-31T17:02:24.978Z,2.50
2023-01-31T17:04:56.405Z,1.42
2023-01-31T17:07:25.608Z,2.22
2023-01-31T17:09:56.723Z,2.05
2023-01-31T17:12:26.531Z,1.70
2023-01-31T17:14:58.355Z,2.53
2023-01-31T17:17:28.006Z,2.55
2023-01-31T17:19:56.948Z,1.55
2023-01-31T17:22:24.416Z,2.10
2023-01-31T17:24:52.556Z,1.20
2023-01-31T17:27:21.505Z,3.63
2023-01-31T17:29:49.726Z,1.42
2023-01-31T17:32:18.968Z,2.08
2023-01-31T17:34:48.203Z,0.73
2023-01-31T17:37:20.832Z,1.10
2023-01-31T17:39:51.319Z,1.83
2023-01-31T17:42:21.697Z,2.80
2023-01-31T17:44:49.155Z,2.40
2023-01-31T17:47:17.288Z,3.33
2023-01-31T17:49:45.345Z,2.92
2023-01-31T17:52:13.009Z,2.03
2023-01-31T17:54:41.827Z,1.55
2023-01-31T17:57:09.329Z,1.65
2023-01-31T17:59:36.781Z,2.28
2023-01-31T18:02:04.454Z,1.98
2023-01-31T18:04:31.953Z,2.67
2023-01-31T18:06:59.403Z,2.38
2023-01-31T18:09:26.883Z,3.60
2023-01-31T18:11:55.679Z,3.45
2023-01-31T18:14:23.122Z,2.17
2023-01-31T18:16:51.149Z,3.00
2023-01-31T18:19:18.592Z,3.15
2023-01-31T18:21:54.347Z,3.60
2023-01-31T18:24:22.644Z,2.72
2023-01-31T18:26:50.187Z,5.82
2023-01-31T18:29:20.782Z,4.43
2023-01-31T18:31:48.872Z,6.53
2023-01-31T18:34:17.980Z,4.43
2023-01-31T18:36:45.595Z,5.38
2023-01-31T18:39:13.467Z,6.03
2023-01-31T18:41:49.765Z,7.00
2023-01-31T18:44:21.830Z,4.47
2023-01-31T18:46:49.562Z,6.47
2023-01-31T18:49:29.147Z,12.50
2023-01-31T18:51:57.234Z,4.85
2023-01-31T18:54:35.330Z,8.07
2023-01-31T18:57:06.035Z,7.40
2023-01-31T18:59:35.990Z,6.20
2023-01-31T19:02:07.435Z,6.45
2023-01-31T19:04:35.187Z,6.20
2023-01-31T19:07:02.851Z,7.33
2023-01-31T19:09:30.738Z,11.50
2023-01-31T19:12:07.202Z,10.05
2023-01-31T19:14:38.379Z,9.50
2023-01-31T19:17:06.075Z,7.85
2023-01-31T19:19:34.648Z,8.43
2023-01-31T19:22:02.749Z,6.65
2023-01-31T19:24:30.424Z,8.25
2023-01-31T19:26:58.298Z,9.65
2023-01-31T19:29:26.839Z,6.60
2023-01-31T19:31:56.155Z,9.00
2023-01-31T19:34:28.221Z,9.77
2023-01-31T19:36:55.989Z,7.80
2023-01-31T19:39:23.580Z,8.18
2023-01-31T19:41:51.406Z,11.65
2023-01-31T19:44:21.602Z,9.87
2023-01-31T19:46:51.934Z,7.88
2023-01-31T19:49:22.086Z,6.82
2023-01-31T19:51:49.805Z,9.23
2023-01-31T19:54:19.232Z,10.10
2023-01-31T19:56:46.967Z,8.10
2023-01-31T19:59:14.602Z,11.77
2023-01-31T20:01:42.371Z,8.25
2023-01-31T20:04:09.973Z,10.57
2023-01-31T20:06:38.970Z,8.45
2023-01-31T20:09:07.421Z,8.67
2023-01-31T20:11:38.139Z,9.63
2023-01-31T20:14:06.446Z,11.32
2023-01-31T20:16:34.204Z,12.07
2023-01-31T20:19:03.635Z,9.20
2023-01-31T20:21:31.382Z,10.77
2023-01-31T20:24:00.706Z,4.65
2023-01-31T20:26:29.665Z,5.40
2023-01-31T20:28:57.439Z,4.78
2023-01-31T20:31:25.502Z,8.57
2023-01-31T20:33:54.685Z,7.47
2023-01-31T20:36:29.946Z,6.70
2023-01-31T20:38:57.552Z,8.82
2023-01-31T20:41:29.377Z,10.90
2023-01-31T20:43:57.869Z,11.68
2023-01-31T20:46:25.572Z,14.33
2023-01-31T20:48:59.755Z,11.73
2023-01-31T20:51:27.955Z,11.10
2023-01-31T20:53:55.587Z,10.38
2023-01-31T20:56:23.327Z,14.65
2023-01-31T20:58:55.224Z,9.23
2023-01-31T21:01:22.887Z,12.05
2023-01-31T21:03:51.878Z,12.38
2023-01-31T21:06:19.406Z,16.77
2023-01-31T21:08:48.544Z,9.65
2023-01-31T21:11:16.448Z,15.43
2023-01-31T21:13:44.302Z,13.98
2023-01-31T21:16:15.475Z,13.30
2023-01-31T21:18:44.293Z,11.25
2023-01-31T21:21:22.931Z,13.30
2023-01-31T21:23:51.976Z,12.23
2023-01-31T21:26:27.037Z,12.10
2023-01-31T21:28:54.883Z,12.77
2023-01-31T21:31:24.084Z,15.15
2023-01-31T21:33:52.835Z,16.67
2023-01-31T21:36:24.111Z,15.60
2023-01-31T21:38:52.133Z,11.73
2023-01-31T21:41:37.067Z,13.07
2023-01-31T21:44:05.166Z,13.90
2023-01-31T21:46:34.032Z,14.80
2023-01-31T21:49:01.828Z,17.90
2023-01-31T21:51:29.329Z,12.65
2023-01-31T21:53:56.924Z,17.85
2023-01-31T21:56:26.198Z,12.48
2023-01-31T21:58:54.622Z,11.70
2023-01-31T22:01:26.571Z,12.47
2023-01-31T22:03:56.407Z,11.45
2023-01-31T22:06:26.862Z,15.00
2023-01-31T22:08:55.985Z,16.58
2023-01-31T22:11:24.247Z,10.57
2023-01-31T22:13:55.919Z,14.50
2023-01-31T22:16:23.973Z,11.45
2023-01-31T22:18:51.659Z,12.77
2023-01-31T22:21:24.140Z,11.15
2023-01-31T22:23:53.977Z,15.48
2023-01-31T22:26:23.902Z,15.27
2023-01-31T22:28:52.268Z,25.20
2023-01-31T22:31:20.580Z,9.13
2023-01-31T22:33:48.972Z,10.88
2023-01-31T22:36:17.698Z,13.73
2023-01-31T22:38:47.058Z,11.77
2023-01-31T22:41:18.958Z,14.65
2023-01-31T22:43:49.449Z,19.05
2023-01-31T22:46:19.104Z,10.27
2023-01-31T22:48:49.141Z,12.85
2023-01-31T22:51:18.682Z,13.13
2023-01-31T22:53:48.128Z,11.32
2023-01-31T22:56:18.155Z,14.93
2023-01-31T22:58:45.907Z,10.32
2023-01-31T23:01:15.631Z,13.60
2023-01-31T23:03:43.853Z,11.57
2023-01-31T23:06:12.609Z,11.27
2023-01-31T23:08:40.470Z,14.20
2023-01-31T23:11:12.188Z,14.15
2023-01-31T23:13:40.503Z,14.00
2023-01-31T23:16:09.837Z,9.23
2023-01-31T23:18:37.385Z,9.43
2023-01-31T23:21:08.649Z,10.07
2023-01-31T23:23:36.164Z,9.15
2023-01-31T23:26:04.380Z,13.55
2023-01-31T23:28:33.453Z,20.77
2023-01-31T23:31:01.198Z,17.48
2023-01-31T23:33:28.769Z,15.02
2023-01-31T23:35:56.235Z,7.88
2023-01-31T23:38:24.263Z,9.68
2023-01-31T23:40:52.842Z,8.23
2023-01-31T23:43:21.125Z,8.30
2023-01-31T23:45:50.565Z,11.15
2023-01-31T23:48:18.330Z,9.70
2023-01-31T23:50:45.834Z,12.43
2023-01-31T23:53:13.516Z,10.83
2023-01-31T23:55:41.110Z,13.65
2023-01-31T23:58:08.669Z,8.15
